Time;durP1;ratioP1;P1;durP2;ratioP2;P2;SDS_P1;SDS_P2;PMS_P1;PMS_P2;Temp;Humidity;BMP_temperature;BMP_pressure;BME280_temperature;BME280_humidity;BME280_pressure;Samples;Min_cycle;Max_cycle;Signal;HPM_P1;HPM_P2
2021/05/28 00:00:47;;;;;;;9.10;5.82;;;12.00;81.90;;;12.48;63.60;98112.63;5025446;28;20071;-49
2021/05/28 00:03:15;;;;;;;8.40;6.47;;;11.90;81.70;;;12.48;63.60;98109.94;5023292;28;20244;-47
2021/05/28 00:05:43;;;;;;;10.68;7.90;;;12.00;81.70;;;12.50;63.32;98112.47;5024917;28;20046;-48
2021/05/28 00:08:11;;;;;;;7.68;6.30;;;12.00;80.90;;;12.50;63.47;98109.78;5025358;28;20052;-50
2021/05/28 00:10:39;;;;;;;8.65;5.78;;;12.10;80.80;;;12.53;63.28;98112.97;5024785;28;20045;-48
2021/05/28 00:13:08;;;;;;;9.32;6.93;;;12.10;80.60;;;12.56;63.64;98111.81;5024519;28;20044;-51
2021/05/28 00:15:36;;;;;;;8.55;6.25;;;12.20;80.40;;;12.57;63.22;98110.81;5025694;28;20064;-46
2021/05/28 00:18:04;;;;;;;8.02;7.22;;;12.10;80.60;;;12.49;63.40;98108.97;5026070;28;20061;-50
2021/05/28 00:20:32;;;;;;;8.30;6.35;;;12.00;80.90;;;12.45;63.76;98104.94;5023524;28;20061;-50
2021/05/28 00:23:01;;;;;;;8.07;6.35;;;11.90;81.60;;;12.43;63.64;98108.75;5024591;28;20132;-50
2021/05/28 00:25:29;;;;;;;7.75;6.90;;;11.90;81.00;;;12.43;63.49;98103.41;5025785;28;20049;-47
2021/05/28 00:27:58;;;;;;;7.38;5.63;;;11.90;80.80;;;12.41;63.58;98103.59;5024661;28;20046;-46
2021/05/28 00:30:26;;;;;;;7.43;6.18;;;12.00;81.10;;;12.40;63.21;98102.75;5025332;28;20045;-48
2021/05/28 00:32:54;;;;;;;7.38;5.63;;;12.00;80.70;;;12.40;63.65;98102.75;5025071;28;20434;-52
2021/05/28 00:35:22;;;;;;;7.55;6.28;;;11.90;80.50;;;12.40;63.14;98110.75;5024141;28;20057;-47
2021/05/28 00:37:51;;;;;;;6.75;5.78;;;12.00;80.10;;;12.42;63.45;98105.25;5023822;28;20091;-47
2021/05/28 00:40:19;;;;;;;7.22;5.93;;;12.00;79.90;;;12.46;63.37;98111.13;5023252;28;20061;-48
2021/05/28 00:42:47;;;;;;;6.85;5.63;;;12.10;79.90;;;12.48;63.27;98107.28;5023155;28;20049;-47
2021/05/28 00:45:16;;;;;;;7.50;5.97;;;12.10;79.70;;;12.48;63.50;98109.94;5023515;28;20064;-49
2021/05/28 00:47:45;;;;;;;11.18;6.47;;;12.10;79.60;;;12.52;62.88;98110.47;5025528;28;20240;-49
2021/05/28 00:50:13;;;;;;;7.65;5.65;;;12.10;79.10;;;12.49;62.95;98106.28;5025431;28;20053;-47
2021/05/28 00:52:42;;;;;;;8.82;5.78;;;12.00;79.10;;;12.48;62.89;98106.44;5024313;28;20343;-46
2021/05/28 00:55:11;;;;;;;7.40;5.47;;;12.00;79.10;;;12.49;63.11;98102.78;5023215;28;20056;-47
2021/05/28 00:57:39;;;;;;;6.90;5.38;;;12.10;79.30;;;12.53;62.99;98112.16;5024472;28;20057;-49
2021/05/28 01:00:09;;;;;;;8.25;5.80;;;12.10;78.90;;;12.54;63.12;98116.47;5023253;28;20049;-46
2021/05/28 01:02:37;;;;;;;8.43;5.40;;;12.20;78.80;;;12.58;62.72;98104.47;5024465;28;20421;-49
2021/05/28 01:05:06;;;;;;;7.43;5.25;;;12.20;78.40;;;12.60;62.74;98103.31;5023967;28;20055;-46
2021/05/28 01:07:34;;;;;;;7.97;5.43;;;12.30;78.20;;;12.61;62.57;98101.47;5005990;28;20061;-46
2021/05/28 01:10:04;;;;;;;7.15;5.53;;;12.30;77.90;;;12.61;62.61;98099.63;5022745;28;20041;-47
2021/05/28 01:12:32;;;;;;;6.68;5.20;;;12.30;77.70;;;12.59;62.55;98106.16;5013055;28;20057;-49
2021/05/28 01:15:01;;;;;;;8.50;5.47;;;12.30;77.50;;;12.59;62.86;98106.97;5004440;28;20054;-45
2021/05/28 01:17:29;;;;;;;6.85;4.97;;;12.20;77.30;;;12.63;62.59;98110.16;5004618;28;20075;-47
2021/05/28 01:19:57;;;;;;;9.63;5.00;;;12.20;77.10;;;12.66;62.07;98117.00;5004515;28;20049;-48
2021/05/28 01:22:26;;;;;;;6.25;4.90;;;12.30;77.30;;;12.63;62.45;98118.19;5004323;28;20049;-48
2021/05/28 01:24:54;;;;;;;7.03;5.43;;;12.30;77.50;;;12.60;62.13;98119.34;5003911;28;20347;-46
2021/05/28 01:27:23;;;;;;;7.70;5.55;;;12.20;77.60;;;12.59;62.21;98115.00;5005113;28;20050;-49
2021/05/28 01:29:51;;;;;;;5.50;4.70;;;12.20;77.70;;;12.61;62.33;98113.00;5003333;28;20045;-50
2021/05/28 01:32:19;;;;;;;8.73;5.93;;;12.20;77.60;;;12.61;62.32;98113.00;5003879;28;20058;-47
2021/05/28 01:34:48;;;;;;;7.95;5.55;;;12.20;77.70;;;12.61;62.35;98112.16;5004129;28;20049;-48
2021/05/28 01:37:17;;;;;;;6.75;4.90;;;12.20;77.80;;;12.56;62.42;98112.66;5003867;28;20060;-50
2021/05/28 01:39:50;;;;;;;7.75;5.90;;;12.20;78.20;;;12.57;62.49;98117.00;5004730;28;20390;-47
2021/05/28 01:42:20;;;;;;;6.50;5.85;;;12.10;78.60;;;12.57;62.65;98108.16;5005281;28;20053;-45
2021/05/28 01:44:49;;;;;;;6.80;5.68;;;12.20;78.50;;;12.57;62.40;98106.31;5003218;28;20056;-45
2021/05/28 01:47:17;;;;;;;7.72;5.05;;;12.20;78.40;;;12.57;62.42;98106.31;5004528;28;20336;-47
2021/05/28 01:49:45;;;;;;;6.88;5.10;;;12.20;78.20;;;12.56;62.51;98107.31;5006612;28;20061;-48
2021/05/28 01:52:14;;;;;;;6.63;4.65;;;12.20;78.00;;;12.55;62.38;98104.81;5006987;28;20360;-46
2021/05/28 01:54:42;;;;;;;6.82;5.32;;;12.10;78.00;;;12.48;62.89;98109.13;5008117;28;20247;-47
2021/05/28 01:57:12;;;;;;;6.30;5.25;;;12.00;79.20;;;12.35;62.96;98110.41;5014934;28;20220;-44
2021/05/28 01:59:44;;;;;;;7.45;5.55;;;11.80;79.90;;;12.34;62.62;98107.91;5026882;28;20351;-47
2021/05/28 02:02:14;;;;;;;8.75;5.63;;;11.80;79.30;;;12.29;62.61;98107.53;5025384;28;20052;-50
2021/05/28 02:04:43;;;;;;;5.25;4.60;;;11.70;79.20;;;12.26;62.85;98113.22;5027245;28;20062;-47
2021/05/28 02:07:12;;;;;;;6.03;4.82;;;11.80;78.70;;;12.17;63.11;98107.00;5026323;28;20053;-46
2021/05/28 02:09:40;;;;;;;7.57;4.68;;;11.60;79.10;;;12.16;62.46;98113.34;5027085;28;20721;-48
2021/05/28 02:12:09;;;;;;;5.97;4.38;;;11.60;78.80;;;12.14;62.82;98110.00;5025811;28;20257;-45
2021/05/28 02:14:37;;;;;;;6.00;4.95;;;11.60;78.40;;;12.12;62.18;98114.66;5028033;28;20061;-44
2021/05/28 02:17:06;;;;;;;6.85;4.03;;;11.60;78.40;;;12.08;62.62;98115.94;5027004;28;20053;-45
2021/05/28 02:19:34;;;;;;;6.22;3.80;;;11.60;78.70;;;12.07;62.27;98119.63;5027391;28;20063;-50
2021/05/28 02:22:03;;;;;;;7.40;4.88;;;11.60;78.50;;;12.10;62.34;98122.00;5028616;28;20079;-48
2021/05/28 02:24:31;;;;;;;8.93;4.55;;;11.70;78.20;;;12.12;62.73;98120.81;5028337;28;20044;-45
2021/05/28 02:26:59;;;;;;;4.90;4.18;;;11.70;77.90;;;12.15;62.68;98117.81;5026681;28;20359;-46
2021/05/28 02:29:27;;;;;;;5.72;4.13;;;11.80;77.70;;;12.19;62.35;98118.34;5028141;28;20060;-48
2021/05/28 02:31:56;;;;;;;6.67;4.50;;;11.80;76.90;;;12.13;61.88;98116.31;5025456;28;20258;-48
2021/05/28 02:34:24;;;;;;;5.17;3.93;;;11.70;76.90;;;12.11;61.87;98112.97;5027136;28;20540;-48
2021/05/28 02:36:52;;;;;;;7.28;4.53;;;11.70;77.00;;;12.05;61.44;98119.78;5027426;28;20271;-44
2021/05/28 02:39:20;;;;;;;7.72;4.00;;;11.60;76.90;;;11.98;61.71;98130.28;5027511;28;20250;-49
2021/05/28 02:41:49;;;;;;;6.65;4.47;;;11.50;76.80;;;11.96;61.66;98124.25;5025263;28;20057;-43
2021/05/28 02:44:17;;;;;;;5.68;4.53;;;11.40;76.60;;;11.94;61.78;98120.91;5027009;28;20057;-45
2021/05/28 02:46:46;;;;;;;8.00;5.15;;;11.40;76.60;;;11.90;61.99;98121.38;5026805;28;20347;-45
2021/05/28 02:49:15;;;;;;;8.02;4.32;;;11.40;76.70;;;11.88;61.75;98126.00;5026767;28;20311;-44
2021/05/28 02:51:43;;;;;;;6.40;4.50;;;11.40;76.70;;;11.85;61.72;98124.47;5026306;28;20060;-45
2021/05/28 02:54:11;;;;;;;7.05;4.10;;;11.40;76.70;;;11.87;61.49;98127.81;5026347;28;20060;-45
2021/05/28 02:56:39;;;;;;;5.45;4.53;;;11.40;76.90;;;11.91;62.05;98126.53;5026274;28;20063;-47
2021/05/28 02:59:07;;;;;;;6.00;4.87;;;11.50;76.60;;;11.93;61.98;98126.41;5025815;28;20067;-44
2021/05/28 03:01:36;;;;;;;5.40;4.22;;;11.50;76.40;;;11.92;61.47;98120.22;5026142;28;20057;-48
2021/05/28 03:04:05;;;;;;;5.45;4.40;;;11.50;76.30;;;11.88;61.81;98124.16;5026367;28;20056;-45
2021/05/28 03:06:33;;;;;;;7.75;4.40;;;11.40;76.30;;;11.83;61.88;98113.97;5026677;28;20053;-50
2021/05/28 03:09:02;;;;;;;7.38;4.57;;;11.30;76.30;;;11.83;61.74;98119.31;5026520;28;20041;-47
2021/05/28 03:11:31;;;;;;;7.30;4.63;;;11.30;76.20;;;11.88;61.28;98123.31;5025807;28;20220;-45
2021/05/28 03:14:00;;;;;;;6.80;4.93;;;11.40;76.30;;;11.86;61.46;98119.97;5043502;28;20060;-48
2021/05/28 03:16:28;;;;;;;8.57;5.50;;;11.40;76.30;;;11.83;61.78;98113.97;5026420;28;20549;-45
2021/05/28 03:18:59;;;;;;;7.45;5.32;;;11.30;76.70;;;11.73;61.47;98129.25;5024971;28;20045;-49
2021/05/28 03:24:01;;;;;;;6.70;4.38;;;11.30;76.50;;;11.78;61.62;98120.75;5025739;28;20061;-46
2021/05/28 03:26:31;;;;;;;7.47;4.72;;;11.40;75.90;;;11.84;61.46;98125.47;5025936;28;20075;-45
2021/05/28 03:29:01;;;;;;;6.45;4.45;;;11.50;75.80;;;11.85;61.42;98123.66;5025050;28;20049;-47
2021/05/28 03:31:29;;;;;;;6.37;4.50;;;11.40;75.60;;;11.82;61.22;98125.66;5041530;28;20053;-45
2021/05/28 03:33:57;;;;;;;5.27;4.73;;;11.40;76.10;;;11.88;61.52;98120.66;5025149;28;20063;-47
2021/05/28 03:36:26;;;;;;;7.93;5.28;;;11.50;76.10;;;11.88;61.48;98134.00;5027092;28;20247;-49
2021/05/28 03:38:56;;;;;;;7.07;4.88;;;11.50;76.00;;;11.87;61.55;98122.50;5025417;28;20057;-46
2021/05/28 03:41:24;;;;;;;6.97;4.80;;;11.40;75.90;;;11.90;61.22;98130.19;5025273;28;20276;-45
2021/05/28 03:43:53;;;;;;;7.60;5.53;;;11.50;76.10;;;11.91;61.42;98123.88;5025906;28;20057;-47
2021/05/28 03:46:21;;;;;;;6.33;5.00;;;11.50;76.10;;;11.92;61.37;98120.22;5026952;28;20049;-45
2021/05/28 03:48:49;;;;;;;7.10;4.72;;;11.50;76.10;;;11.83;61.72;98119.31;5025282;28;20057;-52
2021/05/28 03:51:17;;;;;;;7.28;4.95;;;11.40;76.90;;;11.79;61.95;98123.28;5025004;28;20255;-47
2021/05/28 03:53:46;;;;;;;6.72;4.88;;;11.30;77.00;;;11.80;62.06;98124.94;5024165;28;20051;-46
2021/05/28 03:56:15;;;;;;;7.90;5.13;;;11.40;76.90;;;11.72;61.91;98124.91;5021950;28;20408;-44
2021/05/28 03:58:44;;;;;;;6.45;4.75;;;11.30;77.10;;;11.65;61.91;98129.19;5024482;28;20053;-47
2021/05/28 04:01:12;;;;;;;9.63;5.68;;;11.10;77.80;;;11.67;62.38;98131.69;5025923;28;20059;-46
2021/05/28 04:03:40;;;;;;;18.00;5.37;;;11.10;77.50;;;11.66;62.15;98130.84;5025190;28;20049;-48
2021/05/28 04:06:09;;;;;;;13.33;8.27;;;11.20;77.70;;;11.67;62.04;98126.34;5025138;28;20053;-46
2021/05/28 04:08:37;;;;;;;6.85;5.65;;;11.20;77.50;;;11.70;62.36;98126.88;5024915;28;20053;-47
2021/05/28 04:11:05;;;;;;;9.63;5.40;;;11.30;77.50;;;11.70;62.03;98113.53;5024804;28;20067;-49
2021/05/28 04:13:33;;;;;;;7.33;4.77;;;11.30;77.40;;;11.69;62.51;98122.56;5026117;28;20049;-48
2021/05/28 04:16:02;;;;;;;8.77;6.00;;;11.20;77.30;;;11.70;62.31;98110.88;5024966;28;20045;-44
2021/05/28 04:18:30;;;;;;;9.83;6.23;;;11.30;77.30;;;11.58;62.94;98112.97;5025100;28;20058;-48
2021/05/28 04:20:58;;;;;;;8.33;6.47;;;11.10;78.00;;;11.51;62.52;98122.56;5025298;28;20061;-47
2021/05/28 04:23:26;;;;;;;6.53;5.57;;;11.00;78.70;;;11.38;63.10;98114.13;5026150;28;20057;-46
2021/05/28 04:25:55;;;;;;;9.97;5.97;;;10.90;79.80;;;11.43;63.09;98110.03;5024518;28;20055;-49
2021/05/28 04:28:23;;;;;;;10.27;6.07;;;10.90;79.00;;;11.45;63.16;98107.19;5024157;28;20343;-46
2021/05/28 04:30:51;;;;;;;9.63;6.27;;;11.00;79.30;;;11.32;63.26;98115.63;5032603;22;20045;-43
2021/05/28 04:33:19;;;;;;;9.53;6.37;;;10.80;79.60;;;11.31;63.80;98119.25;5004859;28;20057;-44
2021/05/28 04:35:48;;;;;;;7.90;5.90;;;10.80;79.90;;;11.35;63.58;98117.97;5006254;28;20054;-46
2021/05/28 04:38:17;;;;;;;10.43;6.23;;;10.90;80.60;;;11.38;63.59;98123.00;5004713;28;20072;-43
2021/05/28 04:40:45;;;;;;;9.90;6.70;;;10.90;80.40;;;11.46;63.42;98121.38;5005131;28;20243;-44
2021/05/28 04:43:14;;;;;;;11.43;6.87;;;11.10;79.40;;;11.50;63.37;98126.25;5005589;28;20062;-42
2021/05/28 04:45:42;;;;;;;9.63;7.37;;;11.10;79.00;;;11.49;63.42;98131.72;5002989;28;20267;-46
2021/05/28 04:48:10;;;;;;;10.67;6.87;;;11.10;79.20;;;11.45;63.43;98128.53;5004653;28;20075;-44
2021/05/28 04:50:38;;;;;;;11.50;7.20;;;11.00;79.10;;;11.46;63.17;98140.03;5004022;28;20053;-42
2021/05/28 04:53:08;;;;;;;9.93;7.10;;;11.00;79.30;;;11.52;63.02;98132.25;5004177;28;20049;-45
2021/05/28 04:55:37;;;;;;;10.47;6.60;;;11.10;79.10;;;11.58;62.95;98138.81;5004263;28;20228;-45
2021/05/28 04:58:05;;;;;;;10.30;7.03;;;11.20;78.70;;;11.57;63.68;98142.44;5005378;28;20056;-42
2021/05/28 05:00:33;;;;;;;13.35;7.72;;;11.20;78.70;;;11.57;63.34;98143.31;5006107;28;20255;-46
2021/05/28 05:03:03;;;;;;;13.10;7.47;;;11.20;78.80;;;11.52;63.51;98150.94;5005278;28;20054;-44
2021/05/28 05:05:31;;;;;;;10.10;7.30;;;11.10;79.90;;;11.45;63.49;98155.19;5005138;28;20050;-42
2021/05/28 05:07:59;;;;;;;9.20;6.37;;;11.00;79.90;;;11.29;64.26;98155.06;5005357;28;20045;-43
2021/05/28 05:10:28;;;;;;;12.17;7.43;;;10.80;80.50;;;11.35;64.04;98157.94;5003905;28;20068;-43
2021/05/28 05:12:56;;;;;;;11.90;6.87;;;11.00;80.00;;;11.34;64.17;98158.09;5004726;28;20043;-43
2021/05/28 05:15:24;;;;;;;12.23;7.05;;;11.00;79.80;;;11.41;63.97;98152.00;5019945;28;20068;-42
2021/05/28 05:17:52;;;;;;;13.43;7.07;;;11.00;79.70;;;11.48;63.95;98154.06;5004452;28;20698;-44
2021/05/28 05:20:20;;;;;;;11.73;7.20;;;11.10;79.30;;;11.52;63.76;98158.94;5003885;28;20058;-41
2021/05/28 05:22:48;;;;;;;11.37;7.37;;;11.20;79.30;;;11.54;63.46;98164.13;5005726;28;20053;-43
2021/05/28 05:25:17;;;;;;;10.55;7.53;;;11.20;79.20;;;11.58;63.85;98157.47;5006180;28;20389;-45
2021/05/28 05:27:45;;;;;;;13.17;7.63;;;11.20;79.20;;;11.53;63.70;98162.41;5006174;28;20058;-45
2021/05/28 05:30:14;;;;;;;11.63;7.53;;;11.10;79.40;;;11.46;63.89;98161.34;5006664;28;20056;-43
2021/05/28 05:32:42;;;;;;;14.83;7.73;;;11.10;80.10;;;11.43;64.27;98163.34;5008228;28;20071;-41
2021/05/28 05:35:11;;;;;;;12.07;7.27;;;11.00;79.80;;;11.55;64.07;98165.78;5005906;28;20250;-42
2021/05/28 05:37:40;;;;;;;13.02;8.48;;;11.20;79.60;;;11.58;64.46;98170.81;4990421;28;20052;-42
2021/05/28 05:40:09;;;;;;;13.70;9.53;;;11.30;79.50;;;11.60;64.21;98176.81;5007644;28;20072;-43
2021/05/28 05:42:40;;;;;;;11.23;7.43;;;11.30;79.20;;;11.62;63.87;98169.50;5007239;28;20042;-43
2021/05/28 05:45:11;;;;;;;12.07;7.90;;;11.30;79.60;;;11.66;64.14;98165.53;5007071;28;20060;-42
2021/05/28 05:47:44;;;;;;;10.00;7.30;;;11.40;79.20;;;11.77;63.69;98169.78;5008263;28;20046;-42
2021/05/28 05:50:13;;;;;;;9.70;6.97;;;11.60;78.80;;;11.85;63.80;98169.84;5008051;28;20050;-44
2021/05/28 05:52:41;;;;;;;8.90;6.43;;;11.70;78.40;;;11.90;63.42;98174.72;5008442;28;20050;-42
2021/05/28 05:55:11;;;;;;;15.10;8.33;;;11.70;77.60;;;11.91;63.67;98185.25;5007520;28;20239;-42
2021/05/28 05:57:39;;;;;;;13.82;9.00;;;11.70;77.70;;;11.92;63.49;98178.94;5008272;28;20057;-43
2021/05/28 06:00:08;;;;;;;12.30;8.50;;;11.60;77.60;;;11.93;63.61;98185.09;5006509;28;20254;-44
2021/05/28 06:02:37;;;;;;;11.32;7.40;;;11.70;78.20;;;11.95;63.39;98188.44;5007903;28;20061;-42
2021/05/28 06:05:07;;;;;;;13.88;8.48;;;11.70;78.20;;;12.01;63.72;98182.47;5006511;28;20885;-40
2021/05/28 06:07:35;;;;;;;10.93;7.55;;;11.80;77.90;;;12.06;63.25;98190.84;5006684;28;20053;-42
2021/05/28 06:10:04;;;;;;;11.48;7.90;;;11.90;77.80;;;12.13;63.58;98207.91;5007239;28;20050;-42
2021/05/28 06:12:32;;;;;;;9.32;7.50;;;12.00;77.50;;;12.13;63.50;98201.72;5007033;28;20041;-44
2021/05/28 06:15:01;;;;;;;13.63;7.82;;;12.00;77.20;;;12.14;63.31;98203.41;5007111;28;20060;-47
2021/05/28 06:17:29;;;;;;;10.43;8.07;;;11.90;77.20;;;12.09;63.35;98197.69;5007529;28;20247;-47
2021/05/28 06:19:57;;;;;;;13.02;8.40;;;11.90;77.50;;;12.08;63.34;98202.22;5006862;28;20061;-47
2021/05/28 06:22:28;;;;;;;10.23;7.65;;;11.80;77.70;;;12.12;63.37;98200.91;5007500;28;20053;-43
2021/05/28 06:24:56;;;;;;;14.10;8.07;;;11.90;77.90;;;12.18;63.21;98202.94;5005973;28;20560;-43
2021/05/28 06:27:24;;;;;;;12.10;7.57;;;12.00;77.80;;;12.22;63.45;98198.13;5007502;28;20042;-47
2021/05/28 06:29:53;;;;;;;12.82;8.27;;;12.00;77.40;;;12.24;63.36;98197.97;5021360;28;20050;-44
2021/05/28 06:32:21;;;;;;;11.18;7.60;;;12.00;77.20;;;12.24;63.36;98198.78;5007072;28;20052;-47
2021/05/28 06:34:49;;;;;;;11.05;7.40;;;12.00;77.40;;;12.26;63.38;98196.81;5006148;28;20057;-46
2021/05/28 06:37:17;;;;;;;10.52;8.18;;;12.00;77.10;;;12.25;63.26;98196.97;5006414;28;20346;-53
2021/05/28 06:39:45;;;;;;;12.18;7.78;;;12.00;77.10;;;12.31;62.80;98201.66;5007370;28;20054;-45
2021/05/28 06:42:14;;;;;;;15.00;10.00;;;12.10;77.10;;;12.33;62.68;98200.53;5005489;28;20048;-47
2021/05/28 06:44:42;;;;;;;11.70;8.05;;;12.20;76.70;;;12.42;62.90;98206.72;5006680;28;20053;-44
2021/05/28 06:47:10;;;;;;;13.07;7.40;;;12.30;76.80;;;12.55;63.17;98206.31;5006650;28;20041;-48
2021/05/28 06:49:39;;;;;;;12.80;7.53;;;12.50;76.00;;;12.59;62.58;98204.97;5007933;28;20041;-45
2021/05/28 06:52:07;;;;;;;10.48;7.57;;;12.60;75.50;;;12.66;62.90;98208.69;5007068;28;20052;-47
2021/05/28 06:54:36;;;;;;;14.02;7.88;;;12.60;75.80;;;12.73;62.73;98206.19;5005237;28;20049;-45
2021/05/28 06:57:04;;;;;;;11.50;6.80;;;12.70;75.20;;;12.79;62.15;98211.75;5004947;28;20238;-44
2021/05/28 06:59:33;;;;;;;10.52;7.25;;;12.70;74.80;;;12.85;61.83;98215.59;5005005;28;20054;-47
2021/05/28 07:02:01;;;;;;;7.07;5.72;;;12.80;74.30;;;12.82;61.76;98209.75;4985328;28;20568;-46
2021/05/28 07:04:30;;;;;;;8.43;7.07;;;12.70;73.90;;;12.87;61.89;98210.94;4987667;28;20068;-45
2021/05/28 07:06:58;;;;;;;9.77;8.25;;;12.80;74.70;;;12.93;61.83;98212.09;4986481;28;20304;-48
2021/05/28 07:09:26;;;;;;;10.82;7.55;;;12.90;74.60;;;12.96;61.54;98220.63;4985126;28;20661;-53
2021/05/28 07:11:54;;;;;;;10.65;6.28;;;13.00;74.40;;;13.03;61.27;98226.19;4984140;28;20282;-52
2021/05/28 07:14:23;;;;;;;8.68;6.43;;;13.00;73.30;;;13.11;61.51;98225.38;4986612;28;20050;-51
2021/05/28 07:16:51;;;;;;;13.05;8.82;;;13.10;73.60;;;13.17;61.19;98227.38;4986777;28;20050;-46
2021/05/28 07:19:19;;;;;;;9.18;6.80;;;13.20;72.70;;;13.20;61.16;98229.72;4984671;28;20050;-46
2021/05/28 07:21:47;;;;;;;9.32;6.53;;;13.20;72.80;;;13.27;61.00;98233.41;4986254;28;20069;-45
2021/05/28 07:24:15;;;;;;;8.43;6.57;;;13.30;72.80;;;13.34;61.06;98233.66;4986552;28;20184;-45
2021/05/28 07:26:43;;;;;;;11.90;6.65;;;13.40;72.50;;;13.38;60.32;98235.00;4984869;28;20045;-44
2021/05/28 07:29:13;;;;;;;10.88;7.03;;;13.50;72.30;;;13.43;60.26;98240.66;4986900;28;20247;-44
2021/05/28 07:31:42;;;;;;;10.38;6.97;;;13.50;71.90;;;13.48;60.61;98238.34;4985575;28;20244;-44
2021/05/28 07:34:10;;;;;;;10.13;7.43;;;13.60;72.00;;;13.53;59.98;98243.19;4985903;28;20080;-41
2021/05/28 07:36:39;;;;;;;10.23;7.43;;;13.60;71.30;;;13.55;60.34;98238.50;4986189;28;20076;-43
2021/05/28 07:39:07;;;;;;;12.48;7.88;;;13.50;71.60;;;13.46;60.31;98237.66;4986238;28;20069;-43
2021/05/28 07:41:37;;;;;;;12.38;7.65;;;13.40;72.50;;;13.47;60.46;98242.00;4985356;28;20052;-44
2021/05/28 07:44:06;;;;;;;12.77;8.93;;;13.40;72.80;;;13.41;60.20;98242.66;4984869;28;20243;-45
2021/05/28 07:46:40;;;;;;;9.52;7.05;;;13.30;72.00;;;13.39;59.97;98242.81;4986190;28;20058;-45
2021/05/28 07:49:12;;;;;;;11.20;7.30;;;13.20;72.70;;;13.43;60.26;98235.31;4986163;28;20069;-46
2021/05/28 07:51:40;;;;;;;10.45;7.45;;;13.40;72.50;;;13.52;60.23;98234.31;4985702;28;20068;-46
2021/05/28 07:54:09;;;;;;;9.93;7.20;;;13.60;72.20;;;13.51;59.68;98235.34;4984798;28;20054;-47
2021/05/28 07:56:38;;;;;;;9.65;6.75;;;13.50;71.10;;;13.52;59.29;98233.50;4985314;28;20052;-46
2021/05/28 07:59:07;;;;;;;9.88;7.70;;;13.50;71.10;;;13.48;59.43;98229.47;4987888;28;20084;-47
2021/05/28 08:01:36;;;;;;;11.25;7.30;;;13.40;71.00;;;13.48;59.09;98235.66;5013796;28;20051;-50
2021/05/28 08:04:05;;;;;;;8.05;7.05;;;13.30;70.70;;;13.35;59.04;98241.47;5011007;28;20048;-48
2021/05/28 08:06:33;;;;;;;9.40;7.25;;;13.10;71.30;;;13.35;59.59;98248.69;5013314;28;20049;-46
2021/05/28 08:09:01;;;;;;;12.15;6.82;;;13.10;72.10;;;13.23;60.20;98245.44;5012377;28;20053;-44
2021/05/28 08:11:30;;;;;;;10.75;7.10;;;13.10;72.90;;;13.30;59.81;98237.63;5014212;28;20053;-44
2021/05/28 08:13:59;;;;;;;9.65;7.05;;;13.10;72.80;;;13.40;60.15;98249.03;5013417;28;20063;-48
2021/05/28 08:16:28;;;;;;;11.32;8.15;;;13.30;72.80;;;13.46;60.13;98243.03;5014652;28;20053;-48
2021/05/28 08:18:56;;;;;;;9.35;7.32;;;13.40;72.90;;;13.52;60.38;98244.19;5015881;28;20057;-47
2021/05/28 08:21:24;;;;;;;11.68;7.75;;;13.50;72.90;;;13.45;60.52;98243.19;5024202;28;20041;-46
2021/05/28 08:23:53;;;;;;;19.38;9.23;;;13.40;72.50;;;13.52;60.38;98241.53;5025223;28;20053;-45
2021/05/28 08:26:21;;;;;;;8.90;7.43;;;13.40;72.80;;;13.55;60.06;98236.69;5024745;28;20232;-46
2021/05/28 08:28:49;;;;;;;10.98;7.85;;;13.50;72.10;;;13.61;60.15;98237.88;5024426;28;20073;-47
2021/05/28 08:31:19;;;;;;;11.13;8.25;;;13.60;72.70;;;13.53;59.71;98249.38;5023395;28;20347;-45
2021/05/28 08:33:48;;;;;;;11.73;8.13;;;13.40;71.90;;;13.56;59.78;98245.53;5023138;28;20401;-46
2021/05/28 08:36:16;;;;;;;8.98;7.75;;;13.40;72.50;;;13.53;60.24;98252.06;5023263;28;20565;-45
2021/05/28 08:38:44;;;;;;;10.65;7.93;;;13.40;73.00;;;13.57;59.91;98247.19;5024800;28;20054;-45
2021/05/28 08:41:15;;;;;;;9.88;7.63;;;13.50;72.60;;;13.68;59.92;98240.69;5024114;28;20063;-45
2021/05/28 08:43:44;;;;;;;9.43;7.55;;;13.70;72.40;;;13.81;59.95;98246.38;5024723;28;20054;-44
2021/05/28 08:46:14;;;;;;;8.85;7.55;;;13.90;71.90;;;13.80;59.23;98244.72;5023779;28;20060;-43
2021/05/28 08:48:43;;;;;;;14.05;8.25;;;13.80;71.00;;;13.79;58.70;98235.84;5023704;28;20049;-46
2021/05/28 08:51:11;;;;;;;9.88;7.43;;;13.80;69.60;;;13.79;59.07;98238.53;5024592;28;20232;-46
2021/05/28 08:53:40;;;;;;;10.25;8.18;;;13.70;71.00;;;13.84;59.11;98235.38;5024573;28;20051;-44
2021/05/28 08:56:10;;;;;;;9.68;7.68;;;13.80;71.00;;;13.88;59.09;98230.47;5024134;28;20061;-43
2021/05/28 08:58:39;;;;;;;9.30;7.47;;;13.80;71.50;;;13.96;59.08;98234.00;5026664;28;20413;-46
2021/05/28 09:01:08;;;;;;;10.07;7.30;;;14.00;70.70;;;14.04;58.35;98230.50;5028550;28;20049;-44
2021/05/28 09:03:38;;;;;;;8.98;7.15;;;14.20;69.40;;;14.10;57.91;98226.31;5027054;28;20053;-44
2021/05/28 09:06:19;;;;;;;11.65;6.97;;;14.20;69.10;;;14.12;57.37;98233.16;5028212;28;20057;-48
2021/05/28 09:08:47;;;;;;;7.90;6.40;;;14.20;67.10;;;14.11;57.07;98234.19;5027954;28;20064;-45
2021/05/28 09:11:18;;;;;;;7.45;5.97;;;14.20;67.30;;;14.13;56.23;98226.81;5027751;28;20263;-44
2021/05/28 09:13:50;;;;;;;7.88;6.05;;;14.20;64.60;;;14.22;56.24;98229.47;5027779;28;20045;-45
2021/05/28 09:16:23;;;;;;;7.68;6.18;;;14.30;65.50;;;14.29;56.23;98233.97;5026771;28;20064;-46
2021/05/28 09:19:00;;;;;;;6.25;4.82;;;14.40;65.90;;;14.33;54.56;98240.66;5027570;28;20067;-47
2021/05/28 09:21:32;;;;;;;8.55;5.53;;;14.50;64.10;;;14.40;54.96;98242.66;5026082;28;20057;-45
2021/05/28 09:24:03;;;;;;;7.25;5.30;;;14.60;64.50;;;14.49;55.00;98241.63;5027615;28;20553;-45
2021/05/28 09:26:34;;;;;;;6.97;4.47;;;14.70;64.30;;;14.56;54.84;98235.44;5027368;28;20053;-48
2021/05/28 09:29:05;;;;;;;6.05;5.28;;;14.80;64.20;;;14.60;54.60;98230.56;5027123;28;20267;-50
2021/05/28 09:31:34;;;;;;;9.57;5.53;;;14.80;63.50;;;14.53;53.66;98230.38;5027412;28;20053;-45
2021/05/28 09:34:04;;;;;;;9.02;5.43;;;14.70;62.40;;;14.53;53.69;98240.28;5027857;28;20053;-47
2021/05/28 09:36:39;;;;;;;6.57;5.88;;;14.60;61.70;;;14.55;54.15;98238.25;5029900;28;20053;-44
2021/05/28 09:39:11;;;;;;;7.22;5.63;;;14.50;63.80;;;14.53;53.51;98235.75;5004758;28;20054;-47
2021/05/28 09:41:48;;;;;;;6.95;5.10;;;14.50;62.80;;;14.54;52.73;98233.91;5006085;28;20050;-47
2021/05/28 09:44:25;;;;;;;7.95;4.90;;;14.50;62.00;;;14.54;53.18;98231.25;5007017;28;20064;-45
2021/05/28 09:47:07;;;;;;;6.68;5.05;;;14.50;62.00;;;14.52;53.05;98223.38;5006720;28;20217;-47
2021/05/28 09:49:48;;;;;;;4.97;4.45;;;14.60;61.60;;;14.54;53.02;98225.88;5008859;28;20042;-47
2021/05/28 09:52:29;;;;;;;6.93;5.47;;;14.60;62.00;;;14.61;51.80;98223.38;5009309;28;20056;-46
2021/05/28 09:55:08;;;;;;;6.07;4.95;;;14.70;59.90;;;14.67;51.78;98220.00;5008095;28;20060;-47
2021/05/28 09:57:47;;;;;;;6.40;4.30;;;14.90;61.10;;;14.73;50.88;98219.28;5007203;28;20394;-44
2021/05/28 10:00:34;;;;;;;6.88;4.30;;;15.00;57.80;;;14.82;51.26;98218.25;5006930;28;20255;-46
2021/05/28 10:03:12;;;;;;;5.10;4.35;;;15.10;58.90;;;15.00;52.70;98220.69;5007987;28;20056;-47
2021/05/28 10:05:51;;;;;;;4.80;4.30;;;15.40;59.60;;;15.16;52.21;98217.91;5007149;28;20052;-44
2021/05/28 10:08:22;;;;;;;9.68;4.35;;;15.60;59.20;;;15.31;52.59;98217.16;5006798;28;20223;-44
2021/05/28 10:10:54;;;;;;;8.13;5.05;;;15.80;60.00;;;15.38;51.97;98218.13;5007887;28;20054;-47
2021/05/28 10:13:25;;;;;;;7.90;4.38;;;15.80;59.10;;;15.39;51.38;98219.78;5006608;28;20050;-44
2021/05/28 10:15:56;;;;;;;6.80;5.20;;;15.80;58.80;;;15.37;51.12;98219.13;5006700;28;20050;-45
2021/05/28 10:18:25;;;;;;;6.13;4.63;;;15.60;58.70;;;15.47;51.53;98216.19;5007749;28;20062;-46
2021/05/28 10:20:55;;;;;;;6.25;4.43;;;15.80;59.70;;;15.54;50.30;98219.84;5008288;28;20335;-45
2021/05/28 10:23:24;;;;;;;4.15;3.50;;;15.90;57.90;;;15.62;50.63;98218.97;5007410;28;20355;-42
2021/05/28 10:25:57;;;;;;;5.90;4.72;;;15.90;58.30;;;15.68;49.92;98215.56;5006370;28;20072;-46
2021/05/28 10:28:32;;;;;;;6.32;4.13;;;16.00;56.90;;;15.75;49.67;98217.38;5007036;28;20064;-46